Terminal Aerodrome Forecast
Issued by NWS Louisville, KY

Home | Current Version | Previous Version | Text Only | Print | Product List | Glossary On
Versions: 1 2 3 4 5 6 7 8 9 10 11 12 13
000
FTUS43 KLMK 271700
TAFBWG
TAF
KBWG 271722Z 2718/2818 19007KT P6SM VCSH OVC025
     FM272100 20005KT 5SM -RA BR OVC022
     FM280400 VRB05KT 4SM -RA BR BKN008
     FM280700 34006KT 4SM -RA BR OVC008=

USA.gov is the U.S. government's official web portal to all federal, state and local government web resources and services.